sensor_id;sensor_type;location;lat;lon;timestamp;P1;durP1;ratioP1;P2;durP2;ratioP2
76194;SDS011;64964;48.694;21.206;2023-07-20T00:00:00;8.33;;;5.33;;
76194;SDS011;64964;48.694;21.206;2023-07-20T00:02:26;11.63;;;5.33;;
76194;SDS011;64964;48.694;21.206;2023-07-20T00:04:51;7.05;;;5.22;;
76194;SDS011;64964;48.694;21.206;2023-07-20T00:07:16;10.03;;;5.30;;
76194;SDS011;64964;48.694;21.206;2023-07-20T00:09:42;7.27;;;5.20;;
76194;SDS011;64964;48.694;21.206;2023-07-20T00:12:07;8.67;;;4.70;;
76194;SDS011;64964;48.694;21.206;2023-07-20T00:14:33;8.82;;;5.15;;
76194;SDS011;64964;48.694;21.206;2023-07-20T00:16:58;8.00;;;5.37;;
76194;SDS011;64964;48.694;21.206;2023-07-20T00:19:27;6.80;;;5.30;;
76194;SDS011;64964;48.694;21.206;2023-07-20T00:21:53;8.05;;;5.20;;
76194;SDS011;64964;48.694;21.206;2023-07-20T00:24:19;10.77;;;5.63;;
76194;SDS011;64964;48.694;21.206;2023-07-20T00:26:45;9.63;;;5.47;;
76194;SDS011;64964;48.694;21.206;2023-07-20T00:29:10;8.90;;;5.18;;
76194;SDS011;64964;48.694;21.206;2023-07-20T00:31:36;8.67;;;5.37;;
76194;SDS011;64964;48.694;21.206;2023-07-20T00:34:05;7.20;;;4.72;;
76194;SDS011;64964;48.694;21.206;2023-07-20T00:36:30;9.27;;;5.57;;
76194;SDS011;64964;48.694;21.206;2023-07-20T00:38:56;8.90;;;5.43;;
76194;SDS011;64964;48.694;21.206;2023-07-20T00:41:21;8.57;;;5.20;;
76194;SDS011;64964;48.694;21.206;2023-07-20T00:43:47;6.33;;;4.87;;
76194;SDS011;64964;48.694;21.206;2023-07-20T00:46:12;10.15;;;5.80;;
76194;SDS011;64964;48.694;21.206;2023-07-20T00:48:38;7.37;;;5.00;;
76194;SDS011;64964;48.694;21.206;2023-07-20T00:51:05;6.75;;;4.88;;
76194;SDS011;64964;48.694;21.206;2023-07-20T00:53:30;9.13;;;5.50;;
76194;SDS011;64964;48.694;21.206;2023-07-20T00:55:56;7.17;;;5.00;;
76194;SDS011;64964;48.694;21.206;2023-07-20T00:58:21;6.77;;;5.03;;
76194;SDS011;64964;48.694;21.206;2023-07-20T01:00:47;9.38;;;5.70;;
76194;SDS011;64964;48.694;21.206;2023-07-20T01:03:13;7.40;;;5.40;;
76194;SDS011;64964;48.694;21.206;2023-07-20T01:05:40;11.47;;;5.53;;
76194;SDS011;64964;48.694;21.206;2023-07-20T01:08:49;7.80;;;5.17;;
76194;SDS011;64964;48.694;21.206;2023-07-20T01:11:33;10.13;;;4.70;;
76194;SDS011;64964;48.694;21.206;2023-07-20T01:14:04;8.18;;;5.00;;
76194;SDS011;64964;48.694;21.206;2023-07-20T01:16:30;9.48;;;5.13;;
76194;SDS011;64964;48.694;21.206;2023-07-20T01:18:55;8.27;;;4.83;;
76194;SDS011;64964;48.694;21.206;2023-07-20T01:21:22;8.60;;;5.20;;
76194;SDS011;64964;48.694;21.206;2023-07-20T01:29:11;8.97;;;5.23;;
76194;SDS011;64964;48.694;21.206;2023-07-20T01:31:40;6.15;;;4.82;;
76194;SDS011;64964;48.694;21.206;2023-07-20T01:34:07;8.88;;;5.35;;
76194;SDS011;64964;48.694;21.206;2023-07-20T01:36:37;9.30;;;5.10;;
76194;SDS011;64964;48.694;21.206;2023-07-20T01:39:03;10.60;;;5.25;;
76194;SDS011;64964;48.694;21.206;2023-07-20T01:41:30;8.68;;;5.20;;
76194;SDS011;64964;48.694;21.206;2023-07-20T01:43:59;9.25;;;5.60;;
76194;SDS011;64964;48.694;21.206;2023-07-20T01:46:24;8.73;;;5.13;;
76194;SDS011;64964;48.694;21.206;2023-07-20T01:48:50;5.97;;;4.80;;
76194;SDS011;64964;48.694;21.206;2023-07-20T01:51:15;7.50;;;4.93;;
76194;SDS011;64964;48.694;21.206;2023-07-20T01:53:42;9.00;;;5.38;;
76194;SDS011;64964;48.694;21.206;2023-07-20T01:56:08;7.05;;;4.90;;
76194;SDS011;64964;48.694;21.206;2023-07-20T01:58:33;10.63;;;4.97;;
76194;SDS011;64964;48.694;21.206;2023-07-20T02:01:00;9.80;;;5.00;;
76194;SDS011;64964;48.694;21.206;2023-07-20T02:03:26;10.82;;;5.20;;
76194;SDS011;64964;48.694;21.206;2023-07-20T02:05:52;9.10;;;4.73;;
76194;SDS011;64964;48.694;21.206;2023-07-20T02:08:17;9.23;;;5.13;;
76194;SDS011;64964;48.694;21.206;2023-07-20T02:10:45;7.00;;;4.93;;
76194;SDS011;64964;48.694;21.206;2023-07-20T02:13:12;9.10;;;5.15;;
76194;SDS011;64964;48.694;21.206;2023-07-20T02:15:37;9.83;;;5.30;;
76194;SDS011;64964;48.694;21.206;2023-07-20T02:18:02;8.77;;;5.00;;
76194;SDS011;64964;48.694;21.206;2023-07-20T02:20:28;8.20;;;5.50;;
76194;SDS011;64964;48.694;21.206;2023-07-20T02:22:53;10.90;;;5.23;;
76194;SDS011;64964;48.694;21.206;2023-07-20T02:25:19;6.88;;;4.68;;
76194;SDS011;64964;48.694;21.206;2023-07-20T02:27:45;8.17;;;4.73;;
76194;SDS011;64964;48.694;21.206;2023-07-20T02:30:10;8.27;;;5.73;;
76194;SDS011;64964;48.694;21.206;2023-07-20T02:32:36;7.88;;;5.00;;
76194;SDS011;64964;48.694;21.206;2023-07-20T02:35:01;8.43;;;4.80;;
76194;SDS011;64964;48.694;21.206;2023-07-20T02:37:28;8.23;;;5.13;;
76194;SDS011;64964;48.694;21.206;2023-07-20T02:39:54;8.50;;;5.40;;
76194;SDS011;64964;48.694;21.206;2023-07-20T02:42:19;7.35;;;4.65;;
76194;SDS011;64964;48.694;21.206;2023-07-20T02:44:47;8.03;;;5.10;;
76194;SDS011;64964;48.694;21.206;2023-07-20T02:47:13;8.70;;;4.82;;
76194;SDS011;64964;48.694;21.206;2023-07-20T02:49:38;10.23;;;4.97;;
76194;SDS011;64964;48.694;21.206;2023-07-20T02:52:04;8.90;;;5.57;;
76194;SDS011;64964;48.694;21.206;2023-07-20T02:54:30;8.48;;;4.57;;
76194;SDS011;64964;48.694;21.206;2023-07-20T02:56:55;8.30;;;5.45;;
76194;SDS011;64964;48.694;21.206;2023-07-20T02:59:21;11.93;;;5.43;;
76194;SDS011;64964;48.694;21.206;2023-07-20T03:01:47;8.57;;;5.30;;
76194;SDS011;64964;48.694;21.206;2023-07-20T03:04:12;7.60;;;4.87;;
76194;SDS011;64964;48.694;21.206;2023-07-20T03:06:38;9.18;;;4.93;;
76194;SDS011;64964;48.694;21.206;2023-07-20T03:09:03;9.43;;;5.03;;
76194;SDS011;64964;48.694;21.206;2023-07-20T03:11:29;7.87;;;5.37;;
76194;SDS011;64964;48.694;21.206;2023-07-20T03:13:54;10.00;;;5.35;;
76194;SDS011;64964;48.694;21.206;2023-07-20T03:16:21;8.77;;;4.85;;
76194;SDS011;64964;48.694;21.206;2023-07-20T03:18:46;6.93;;;4.90;;
76194;SDS011;64964;48.694;21.206;2023-07-20T03:21:12;9.98;;;5.32;;
76194;SDS011;64964;48.694;21.206;2023-07-20T03:23:38;7.50;;;5.07;;
76194;SDS011;64964;48.694;21.206;2023-07-20T03:26:04;9.73;;;5.70;;
76194;SDS011;64964;48.694;21.206;2023-07-20T03:28:30;7.83;;;5.40;;
76194;SDS011;64964;48.694;21.206;2023-07-20T03:30:55;8.52;;;5.18;;
76194;SDS011;64964;48.694;21.206;2023-07-20T03:33:25;9.10;;;5.23;;
76194;SDS011;64964;48.694;21.206;2023-07-20T03:35:51;9.02;;;4.97;;
76194;SDS011;64964;48.694;21.206;2023-07-20T03:38:17;9.02;;;4.90;;
76194;SDS011;64964;48.694;21.206;2023-07-20T03:40:49;9.20;;;5.13;;
76194;SDS011;64964;48.694;21.206;2023-07-20T03:43:18;8.65;;;5.22;;
76194;SDS011;64964;48.694;21.206;2023-07-20T03:45:44;8.73;;;5.23;;
76194;SDS011;64964;48.694;21.206;2023-07-20T03:48:10;7.20;;;5.53;;
76194;SDS011;64964;48.694;21.206;2023-07-20T03:50:36;9.02;;;5.15;;
76194;SDS011;64964;48.694;21.206;2023-07-20T03:53:02;10.80;;;5.27;;
76194;SDS011;64964;48.694;21.206;2023-07-20T03:55:27;7.15;;;4.88;;
76194;SDS011;64964;48.694;21.206;2023-07-20T03:57:53;9.63;;;5.27;;
76194;SDS011;64964;48.694;21.206;2023-07-20T04:00:18;8.30;;;4.90;;
76194;SDS011;64964;48.694;21.206;2023-07-20T04:02:43;8.93;;;5.30;;
76194;SDS011;64964;48.694;21.206;2023-07-20T04:05:09;10.80;;;5.10;;
76194;SDS011;64964;48.694;21.206;2023-07-20T04:07:34;10.90;;;5.23;;
76194;SDS011;64964;48.694;21.206;2023-07-20T04:10:00;9.57;;;5.17;;
76194;SDS011;64964;48.694;21.206;2023-07-20T04:12:25;10.53;;;5.77;;
76194;SDS011;64964;48.694;21.206;2023-07-20T04:14:50;11.00;;;5.87;;
76194;SDS011;64964;48.694;21.206;2023-07-20T04:17:16;10.33;;;6.10;;
76194;SDS011;64964;48.694;21.206;2023-07-20T04:19:43;14.13;;;6.10;;
76194;SDS011;64964;48.694;21.206;2023-07-20T04:22:08;10.63;;;6.17;;
76194;SDS011;64964;48.694;21.206;2023-07-20T04:24:33;9.80;;;6.37;;
76194;SDS011;64964;48.694;21.206;2023-07-20T04:26:59;13.98;;;6.18;;
76194;SDS011;64964;48.694;21.206;2023-07-20T04:29:24;10.50;;;6.17;;
76194;SDS011;64964;48.694;21.206;2023-07-20T04:31:49;11.97;;;6.40;;
76194;SDS011;64964;48.694;21.206;2023-07-20T04:34:15;14.23;;;6.07;;
76194;SDS011;64964;48.694;21.206;2023-07-20T04:36:40;12.20;;;6.40;;
76194;SDS011;64964;48.694;21.206;2023-07-20T04:39:05;11.13;;;6.72;;
76194;SDS011;64964;48.694;21.206;2023-07-20T04:41:33;12.20;;;6.23;;
76194;SDS011;64964;48.694;21.206;2023-07-20T04:43:58;14.05;;;7.15;;
76194;SDS011;64964;48.694;21.206;2023-07-20T04:46:24;10.03;;;6.80;;
76194;SDS011;64964;48.694;21.206;2023-07-20T04:48:49;17.27;;;6.80;;
76194;SDS011;64964;48.694;21.206;2023-07-20T04:51:14;13.73;;;7.40;;
76194;SDS011;64964;48.694;21.206;2023-07-20T04:53:42;13.90;;;7.30;;
76194;SDS011;64964;48.694;21.206;2023-07-20T04:56:07;10.68;;;7.03;;
76194;SDS011;64964;48.694;21.206;2023-07-20T04:58:33;14.67;;;7.43;;
76194;SDS011;64964;48.694;21.206;2023-07-20T05:00:58;13.23;;;7.27;;
76194;SDS011;64964;48.694;21.206;2023-07-20T05:03:24;15.53;;;7.27;;
76194;SDS011;64964;48.694;21.206;2023-07-20T05:05:49;12.13;;;7.25;;
76194;SDS011;64964;48.694;21.206;2023-07-20T05:08:15;11.37;;;7.17;;
76194;SDS011;64964;48.694;21.206;2023-07-20T05:10:41;11.63;;;7.10;;
76194;SDS011;64964;48.694;21.206;2023-07-20T05:13:06;12.17;;;6.93;;
76194;SDS011;64964;48.694;21.206;2023-07-20T05:15:35;13.93;;;6.90;;
76194;SDS011;64964;48.694;21.206;2023-07-20T05:18:00;11.52;;;5.72;;
76194;SDS011;64964;48.694;21.206;2023-07-20T05:20:26;9.53;;;6.30;;
76194;SDS011;64964;48.694;21.206;2023-07-20T05:22:52;10.02;;;6.03;;
76194;SDS011;64964;48.694;21.206;2023-07-20T05:25:18;11.68;;;6.68;;
76194;SDS011;64964;48.694;21.206;2023-07-20T05:27:43;12.67;;;8.27;;
76194;SDS011;64964;48.694;21.206;2023-07-20T05:30:09;15.05;;;8.68;;
76194;SDS011;64964;48.694;21.206;2023-07-20T05:32:35;19.67;;;8.50;;
76194;SDS011;64964;48.694;21.206;2023-07-20T05:35:00;17.07;;;8.77;;
76194;SDS011;64964;48.694;21.206;2023-07-20T05:37:26;16.55;;;7.90;;
76194;SDS011;64964;48.694;21.206;2023-07-20T05:39:51;14.53;;;7.63;;
76194;SDS011;64964;48.694;21.206;2023-07-20T05:42:17;12.93;;;7.80;;
76194;SDS011;64964;48.694;21.206;2023-07-20T05:44:42;17.13;;;8.53;;
76194;SDS011;64964;48.694;21.206;2023-07-20T05:47:07;12.50;;;7.20;;
76194;SDS011;64964;48.694;21.206;2023-07-20T05:49:34;14.85;;;7.40;;
76194;SDS011;64964;48.694;21.206;2023-07-20T05:51:59;17.30;;;9.53;;
76194;SDS011;64964;48.694;21.206;2023-07-20T05:54:26;22.85;;;9.95;;
76194;SDS011;64964;48.694;21.206;2023-07-20T05:56:52;17.15;;;9.60;;
76194;SDS011;64964;48.694;21.206;2023-07-20T05:59:18;14.75;;;9.88;;
76194;SDS011;64964;48.694;21.206;2023-07-20T06:01:44;17.92;;;11.48;;
76194;SDS011;64964;48.694;21.206;2023-07-20T06:04:10;22.47;;;12.80;;
76194;SDS011;64964;48.694;21.206;2023-07-20T06:06:35;19.77;;;12.93;;
76194;SDS011;64964;48.694;21.206;2023-07-20T06:09:01;22.67;;;14.03;;
76194;SDS011;64964;48.694;21.206;2023-07-20T06:11:30;18.30;;;12.10;;
76194;SDS011;64964;48.694;21.206;2023-07-20T06:13:56;14.43;;;10.60;;
76194;SDS011;64964;48.694;21.206;2023-07-20T06:16:22;22.17;;;12.20;;
76194;SDS011;64964;48.694;21.206;2023-07-20T06:18:47;18.67;;;11.10;;
76194;SDS011;64964;48.694;21.206;2023-07-20T06:21:13;15.88;;;11.07;;
76194;SDS011;64964;48.694;21.206;2023-07-20T06:23:38;16.07;;;9.03;;
76194;SDS011;64964;48.694;21.206;2023-07-20T06:26:05;14.70;;;9.70;;
76194;SDS011;64964;48.694;21.206;2023-07-20T06:28:31;23.52;;;11.35;;
76194;SDS011;64964;48.694;21.206;2023-07-20T06:31:02;17.53;;;10.47;;
76194;SDS011;64964;48.694;21.206;2023-07-20T06:33:28;21.45;;;10.98;;
76194;SDS011;64964;48.694;21.206;2023-07-20T06:35:54;22.13;;;11.10;;
76194;SDS011;64964;48.694;21.206;2023-07-20T06:38:20;22.25;;;11.13;;
76194;SDS011;64964;48.694;21.206;2023-07-20T06:40:48;23.87;;;11.47;;
76194;SDS011;64964;48.694;21.206;2023-07-20T06:43:13;36.75;;;14.32;;
76194;SDS011;64964;48.694;21.206;2023-07-20T06:45:39;33.40;;;15.30;;
76194;SDS011;64964;48.694;21.206;2023-07-20T06:48:04;32.15;;;17.17;;
76194;SDS011;64964;48.694;21.206;2023-07-20T06:50:30;45.40;;;23.73;;
76194;SDS011;64964;48.694;21.206;2023-07-20T06:52:55;49.20;;;24.10;;
76194;SDS011;64964;48.694;21.206;2023-07-20T06:55:20;44.67;;;21.90;;
76194;SDS011;64964;48.694;21.206;2023-07-20T06:57:46;42.10;;;23.33;;
76194;SDS011;64964;48.694;21.206;2023-07-20T07:00:12;47.17;;;25.33;;
76194;SDS011;64964;48.694;21.206;2023-07-20T07:02:37;66.55;;;30.67;;
76194;SDS011;64964;48.694;21.206;2023-07-20T07:05:03;48.80;;;26.07;;
76194;SDS011;64964;48.694;21.206;2023-07-20T07:07:29;52.75;;;27.00;;
76194;SDS011;64964;48.694;21.206;2023-07-20T07:09:54;35.50;;;20.70;;
76194;SDS011;64964;48.694;21.206;2023-07-20T07:12:20;34.57;;;19.40;;
76194;SDS011;64964;48.694;21.206;2023-07-20T07:14:45;27.95;;;17.15;;
76194;SDS011;64964;48.694;21.206;2023-07-20T07:17:11;28.20;;;16.00;;
76194;SDS011;64964;48.694;21.206;2023-07-20T07:19:36;23.23;;;13.50;;
76194;SDS011;64964;48.694;21.206;2023-07-20T07:22:02;24.05;;;13.52;;
76194;SDS011;64964;48.694;21.206;2023-07-20T07:24:28;23.27;;;13.57;;
76194;SDS011;64964;48.694;21.206;2023-07-20T07:29:32;23.10;;;14.40;;
76194;SDS011;64964;48.694;21.206;2023-07-20T07:31:57;23.07;;;14.97;;
76194;SDS011;64964;48.694;21.206;2023-07-20T07:34:23;21.85;;;13.52;;
76194;SDS011;64964;48.694;21.206;2023-07-20T07:36:48;21.23;;;13.70;;
76194;SDS011;64964;48.694;21.206;2023-07-20T07:39:15;21.48;;;13.77;;
76194;SDS011;64964;48.694;21.206;2023-07-20T07:41:40;26.37;;;14.33;;
76194;SDS011;64964;48.694;21.206;2023-07-20T07:44:05;19.80;;;13.07;;
76194;SDS011;64964;48.694;21.206;2023-07-20T07:46:31;20.70;;;13.48;;
76194;SDS011;64964;48.694;21.206;2023-07-20T07:48:56;22.23;;;14.30;;
76194;SDS011;64964;48.694;21.206;2023-07-20T07:51:22;23.67;;;14.10;;
76194;SDS011;64964;48.694;21.206;2023-07-20T07:53:47;26.75;;;13.65;;
76194;SDS011;64964;48.694;21.206;2023-07-20T07:56:14;18.93;;;13.10;;
76194;SDS011;64964;48.694;21.206;2023-07-20T07:58:39;25.33;;;12.85;;
76194;SDS011;64964;48.694;21.206;2023-07-20T08:01:05;16.10;;;11.38;;
76194;SDS011;64964;48.694;21.206;2023-07-20T08:03:30;16.03;;;10.60;;
76194;SDS011;64964;48.694;21.206;2023-07-20T08:05:56;14.13;;;9.40;;
76194;SDS011;64964;48.694;21.206;2023-07-20T08:08:22;13.67;;;10.07;;
76194;SDS011;64964;48.694;21.206;2023-07-20T08:10:47;12.23;;;9.00;;
76194;SDS011;64964;48.694;21.206;2023-07-20T08:13:13;11.50;;;8.57;;
76194;SDS011;64964;48.694;21.206;2023-07-20T08:15:39;11.20;;;8.38;;
76194;SDS011;64964;48.694;21.206;2023-07-20T08:18:06;10.13;;;7.50;;
76194;SDS011;64964;48.694;21.206;2023-07-20T08:20:33;11.02;;;7.60;;
76194;SDS011;64964;48.694;21.206;2023-07-20T08:23:00;10.05;;;7.60;;
76194;SDS011;64964;48.694;21.206;2023-07-20T08:25:26;14.33;;;8.13;;
76194;SDS011;64964;48.694;21.206;2023-07-20T08:27:51;12.53;;;8.80;;
76194;SDS011;64964;48.694;21.206;2023-07-20T08:30:16;14.68;;;9.38;;
76194;SDS011;64964;48.694;21.206;2023-07-20T08:32:42;15.50;;;10.57;;
76194;SDS011;64964;48.694;21.206;2023-07-20T08:35:07;13.37;;;9.10;;
76194;SDS011;64964;48.694;21.206;2023-07-20T08:37:33;13.10;;;8.85;;
76194;SDS011;64964;48.694;21.206;2023-07-20T08:39:58;11.90;;;7.77;;
76194;SDS011;64964;48.694;21.206;2023-07-20T08:42:24;11.60;;;7.93;;
76194;SDS011;64964;48.694;21.206;2023-07-20T08:44:50;13.13;;;9.20;;
76194;SDS011;64964;48.694;21.206;2023-07-20T08:47:18;9.45;;;6.60;;
76194;SDS011;64964;48.694;21.206;2023-07-20T08:49:47;8.43;;;6.40;;
76194;SDS011;64964;48.694;21.206;2023-07-20T08:52:13;9.10;;;6.45;;
76194;SDS011;64964;48.694;21.206;2023-07-20T08:54:39;10.63;;;5.80;;
76194;SDS011;64964;48.694;21.206;2023-07-20T08:57:05;7.72;;;5.53;;
76194;SDS011;64964;48.694;21.206;2023-07-20T08:59:31;9.00;;;5.47;;
76194;SDS011;64964;48.694;21.206;2023-07-20T09:01:57;7.57;;;5.15;;
76194;SDS011;64964;48.694;21.206;2023-07-20T09:04:23;9.70;;;4.88;;
76194;SDS011;64964;48.694;21.206;2023-07-20T09:06:49;6.77;;;4.80;;
76194;SDS011;64964;48.694;21.206;2023-07-20T09:09:15;6.32;;;4.38;;
76194;SDS011;64964;48.694;21.206;2023-07-20T09:11:40;6.23;;;4.83;;
76194;SDS011;64964;48.694;21.206;2023-07-20T09:14:06;6.40;;;4.07;;
76194;SDS011;64964;48.694;21.206;2023-07-20T09:16:46;4.87;;;4.13;;
76194;SDS011;64964;48.694;21.206;2023-07-20T09:19:14;6.35;;;3.80;;
76194;SDS011;64964;48.694;21.206;2023-07-20T09:21:40;6.32;;;4.10;;
76194;SDS011;64964;48.694;21.206;2023-07-20T09:24:05;4.77;;;3.67;;
76194;SDS011;64964;48.694;21.206;2023-07-20T09:26:31;6.45;;;3.88;;
76194;SDS011;64964;48.694;21.206;2023-07-20T09:29:06;9.88;;;4.00;;
76194;SDS011;64964;48.694;21.206;2023-07-20T09:31:34;6.57;;;4.07;;
76194;SDS011;64964;48.694;21.206;2023-07-20T09:33:59;6.40;;;3.90;;
76194;SDS011;64964;48.694;21.206;2023-07-20T09:36:26;5.90;;;3.93;;
76194;SDS011;64964;48.694;21.206;2023-07-20T09:38:52;6.93;;;4.03;;
76194;SDS011;64964;48.694;21.206;2023-07-20T09:41:18;5.22;;;3.65;;
76194;SDS011;64964;48.694;21.206;2023-07-20T09:43:43;6.15;;;4.00;;
76194;SDS011;64964;48.694;21.206;2023-07-20T09:46:10;5.33;;;3.77;;
76194;SDS011;64964;48.694;21.206;2023-07-20T09:48:36;6.00;;;3.90;;
76194;SDS011;64964;48.694;21.206;2023-07-20T09:51:02;6.90;;;4.03;;
76194;SDS011;64964;48.694;21.206;2023-07-20T09:53:29;5.50;;;3.80;;
76194;SDS011;64964;48.694;21.206;2023-07-20T09:55:56;7.33;;;3.70;;
76194;SDS011;64964;48.694;21.206;2023-07-20T09:58:22;7.40;;;3.85;;
76194;SDS011;64964;48.694;21.206;2023-07-20T10:00:48;5.13;;;3.70;;
76194;SDS011;64964;48.694;21.206;2023-07-20T10:03:20;5.93;;;4.00;;
76194;SDS011;64964;48.694;21.206;2023-07-20T10:05:48;6.43;;;4.13;;
76194;SDS011;64964;48.694;21.206;2023-07-20T10:08:19;5.88;;;3.90;;
76194;SDS011;64964;48.694;21.206;2023-07-20T10:10:48;7.32;;;4.10;;
76194;SDS011;64964;48.694;21.206;2023-07-20T10:13:17;8.25;;;3.92;;
76194;SDS011;64964;48.694;21.206;2023-07-20T10:15:46;7.33;;;4.10;;
76194;SDS011;64964;48.694;21.206;2023-07-20T10:18:29;8.77;;;4.67;;
76194;SDS011;64964;48.694;21.206;2023-07-20T10:21:07;7.75;;;4.95;;
76194;SDS011;64964;48.694;21.206;2023-07-20T10:23:34;8.23;;;4.50;;
76194;SDS011;64964;48.694;21.206;2023-07-20T10:26:01;7.55;;;4.93;;
76194;SDS011;64964;48.694;21.206;2023-07-20T10:28:26;6.28;;;4.50;;
76194;SDS011;64964;48.694;21.206;2023-07-20T10:30:52;9.40;;;4.53;;
76194;SDS011;64964;48.694;21.206;2023-07-20T10:33:18;9.30;;;5.17;;
76194;SDS011;64964;48.694;21.206;2023-07-20T10:35:51;7.35;;;4.60;;
76194;SDS011;64964;48.694;21.206;2023-07-20T10:38:37;8.50;;;4.97;;
76194;SDS011;64964;48.694;21.206;2023-07-20T10:41:49;8.00;;;5.10;;
76194;SDS011;64964;48.694;21.206;2023-07-20T10:44:03;10.83;;;5.20;;
76194;SDS011;64964;48.694;21.206;2023-07-20T10:46:33;11.38;;;5.25;;
76194;SDS011;64964;48.694;21.206;2023-07-20T10:49:05;8.50;;;5.22;;
76194;SDS011;64964;48.694;21.206;2023-07-20T10:51:39;8.77;;;5.35;;
76194;SDS011;64964;48.694;21.206;2023-07-20T10:54:48;7.38;;;4.97;;
76194;SDS011;64964;48.694;21.206;2023-07-20T10:56:57;9.40;;;5.30;;
76194;SDS011;64964;48.694;21.206;2023-07-20T10:59:43;9.00;;;4.93;;
76194;SDS011;64964;48.694;21.206;2023-07-20T11:02:08;9.75;;;5.13;;
76194;SDS011;64964;48.694;21.206;2023-07-20T11:04:37;8.00;;;5.10;;
76194;SDS011;64964;48.694;21.206;2023-07-20T11:07:03;8.45;;;5.07;;
76194;SDS011;64964;48.694;21.206;2023-07-20T11:09:32;7.43;;;5.18;;
76194;SDS011;64964;48.694;21.206;2023-07-20T11:14:57;7.97;;;5.40;;
76194;SDS011;64964;48.694;21.206;2023-07-20T11:17:29;8.05;;;5.25;;
76194;SDS011;64964;48.694;21.206;2023-07-20T11:19:56;6.95;;;5.20;;
76194;SDS011;64964;48.694;21.206;2023-07-20T11:22:22;8.60;;;4.82;;
76194;SDS011;64964;48.694;21.206;2023-07-20T11:24:48;10.67;;;5.10;;
76194;SDS011;64964;48.694;21.206;2023-07-20T11:27:14;8.80;;;5.38;;
76194;SDS011;64964;48.694;21.206;2023-07-20T11:29:40;6.47;;;5.28;;
76194;SDS011;64964;48.694;21.206;2023-07-20T11:32:05;9.10;;;5.37;;
76194;SDS011;64964;48.694;21.206;2023-07-20T11:34:31;8.60;;;5.00;;
76194;SDS011;64964;48.694;21.206;2023-07-20T11:36:57;7.00;;;4.57;;
76194;SDS011;64964;48.694;21.206;2023-07-20T11:39:24;7.00;;;5.13;;
76194;SDS011;64964;48.694;21.206;2023-07-20T11:41:51;8.95;;;5.40;;
76194;SDS011;64964;48.694;21.206;2023-07-20T11:44:18;11.50;;;6.20;;
76194;SDS011;64964;48.694;21.206;2023-07-20T11:46:45;8.77;;;5.40;;
76194;SDS011;64964;48.694;21.206;2023-07-20T11:49:11;8.70;;;5.40;;
76194;SDS011;64964;48.694;21.206;2023-07-20T11:51:37;8.95;;;5.70;;
76194;SDS011;64964;48.694;21.206;2023-07-20T11:54:05;8.10;;;5.32;;
76194;SDS011;64964;48.694;21.206;2023-07-20T11:56:32;9.07;;;5.70;;
76194;SDS011;64964;48.694;21.206;2023-07-20T11:58:58;11.07;;;5.53;;
76194;SDS011;64964;48.694;21.206;2023-07-20T12:01:26;7.40;;;5.13;;
76194;SDS011;64964;48.694;21.206;2023-07-20T12:04:03;9.20;;;5.55;;
76194;SDS011;64964;48.694;21.206;2023-07-20T12:06:29;8.00;;;5.63;;
76194;SDS011;64964;48.694;21.206;2023-07-20T12:08:58;7.70;;;5.25;;
76194;SDS011;64964;48.694;21.206;2023-07-20T12:11:34;9.45;;;5.63;;
76194;SDS011;64964;48.694;21.206;2023-07-20T12:14:01;8.98;;;5.80;;
76194;SDS011;64964;48.694;21.206;2023-07-20T12:16:28;8.52;;;5.95;;
76194;SDS011;64964;48.694;21.206;2023-07-20T12:19:06;9.47;;;5.73;;
76194;SDS011;64964;48.694;21.206;2023-07-20T12:21:36;8.85;;;5.75;;
76194;SDS011;64964;48.694;21.206;2023-07-20T12:24:04;9.60;;;6.00;;
76194;SDS011;64964;48.694;21.206;2023-07-20T12:26:30;9.98;;;6.30;;
76194;SDS011;64964;48.694;21.206;2023-07-20T12:28:56;8.75;;;5.68;;
76194;SDS011;64964;48.694;21.206;2023-07-20T12:31:22;9.53;;;5.63;;
76194;SDS011;64964;48.694;21.206;2023-07-20T12:33:49;7.60;;;5.90;;
76194;SDS011;64964;48.694;21.206;2023-07-20T12:36:15;8.38;;;5.50;;
76194;SDS011;64964;48.694;21.206;2023-07-20T12:38:41;9.77;;;6.00;;
76194;SDS011;64964;48.694;21.206;2023-07-20T12:41:07;9.05;;;6.50;;
76194;SDS011;64964;48.694;21.206;2023-07-20T12:43:33;8.48;;;6.50;;
76194;SDS011;64964;48.694;21.206;2023-07-20T12:45:59;10.37;;;6.70;;
76194;SDS011;64964;48.694;21.206;2023-07-20T12:48:24;8.98;;;6.05;;
76194;SDS011;64964;48.694;21.206;2023-07-20T12:50:50;8.33;;;5.63;;
76194;SDS011;64964;48.694;21.206;2023-07-20T12:53:15;9.18;;;5.80;;
76194;SDS011;64964;48.694;21.206;2023-07-20T12:55:41;12.00;;;7.20;;
76194;SDS011;64964;48.694;21.206;2023-07-20T12:58:07;8.27;;;6.85;;
76194;SDS011;64964;48.694;21.206;2023-07-20T13:00:33;9.30;;;6.05;;
76194;SDS011;64964;48.694;21.206;2023-07-20T13:02:58;8.63;;;6.13;;
76194;SDS011;64964;48.694;21.206;2023-07-20T13:05:24;7.45;;;6.25;;
76194;SDS011;64964;48.694;21.206;2023-07-20T13:07:49;8.70;;;6.23;;
76194;SDS011;64964;48.694;21.206;2023-07-20T13:10:15;9.90;;;6.50;;
76194;SDS011;64964;48.694;21.206;2023-07-20T13:12:40;11.60;;;6.30;;
76194;SDS011;64964;48.694;21.206;2023-07-20T13:15:07;9.10;;;6.32;;
76194;SDS011;64964;48.694;21.206;2023-07-20T13:17:34;9.13;;;6.53;;
76194;SDS011;64964;48.694;21.206;2023-07-20T13:20:01;10.80;;;6.47;;
76194;SDS011;64964;48.694;21.206;2023-07-20T13:22:29;9.57;;;6.60;;
76194;SDS011;64964;48.694;21.206;2023-07-20T13:24:55;9.88;;;6.35;;
76194;SDS011;64964;48.694;21.206;2023-07-20T13:27:20;8.20;;;5.90;;
76194;SDS011;64964;48.694;21.206;2023-07-20T13:29:46;10.57;;;6.20;;
76194;SDS011;64964;48.694;21.206;2023-07-20T13:32:14;54.67;;;8.50;;
76194;SDS011;64964;48.694;21.206;2023-07-20T13:34:41;12.38;;;5.68;;
76194;SDS011;64964;48.694;21.206;2023-07-20T13:37:07;6.97;;;5.50;;
76194;SDS011;64964;48.694;21.206;2023-07-20T13:39:33;10.30;;;5.35;;
76194;SDS011;64964;48.694;21.206;2023-07-20T13:41:58;6.33;;;5.67;;
76194;SDS011;64964;48.694;21.206;2023-07-20T13:44:26;8.45;;;5.50;;
76194;SDS011;64964;48.694;21.206;2023-07-20T13:46:52;9.77;;;6.50;;
76194;SDS011;64964;48.694;21.206;2023-07-20T13:49:17;10.03;;;6.90;;
76194;SDS011;64964;48.694;21.206;2023-07-20T13:51:42;8.68;;;6.60;;
76194;SDS011;64964;48.694;21.206;2023-07-20T13:54:08;6.87;;;5.67;;
76194;SDS011;64964;48.694;21.206;2023-07-20T13:56:33;7.77;;;5.87;;
76194;SDS011;64964;48.694;21.206;2023-07-20T13:58:59;11.10;;;5.40;;
76194;SDS011;64964;48.694;21.206;2023-07-20T14:01:24;8.10;;;5.77;;
76194;SDS011;64964;48.694;21.206;2023-07-20T14:03:50;7.57;;;5.30;;
76194;SDS011;64964;48.694;21.206;2023-07-20T14:06:16;9.55;;;5.60;;
76194;SDS011;64964;48.694;21.206;2023-07-20T14:08:41;9.93;;;5.70;;
76194;SDS011;64964;48.694;21.206;2023-07-20T14:11:07;8.68;;;5.55;;
76194;SDS011;64964;48.694;21.206;2023-07-20T14:13:32;7.50;;;5.07;;
76194;SDS011;64964;48.694;21.206;2023-07-20T14:15:57;8.80;;;5.93;;
76194;SDS011;64964;48.694;21.206;2023-07-20T14:18:23;7.63;;;5.63;;
76194;SDS011;64964;48.694;21.206;2023-07-20T14:20:48;8.00;;;5.50;;
76194;SDS011;64964;48.694;21.206;2023-07-20T14:23:14;7.13;;;5.40;;
76194;SDS011;64964;48.694;21.206;2023-07-20T14:25:40;7.67;;;5.03;;
76194;SDS011;64964;48.694;21.206;2023-07-20T14:28:05;6.05;;;4.97;;
76194;SDS011;64964;48.694;21.206;2023-07-20T14:30:31;7.13;;;5.60;;
76194;SDS011;64964;48.694;21.206;2023-07-20T14:32:56;6.37;;;4.90;;
76194;SDS011;64964;48.694;21.206;2023-07-20T14:35:21;7.37;;;5.10;;